Bedford, Canada
Current Conditions -  °F | °C
As of 1:00 AM on Monday 20 Oct 2014 (Local Time) from CYHZ Reporting Station
Light Rain Light Rain  
Wind Chill: 39°   Ceiling: 300
Heat Index: 46°   Visibility: 5mi
Dew Point: 45°   Wind: 21mph
Humidity: 93%   Direction: 320°NW
Pressure: 29.52"   Gusts: 29mph
Location:  44.73°N, 63.66°W
Report Text: CYHZ 200400Z 32018G25KT 5SM -RA BR BKN003 OVC030 08/07 A2952 RMK SF7SC1 SLP999
Loading
Personal Weather Stations






























Interactive Weather Map
Tropical Storm Tracking
New forecast layout! Learn more

10-Day Weather Forecast

Advertisements
Track Severe Weather on mobile